This is the latest recevied weather packets stored in our database for station/object KC3ROS. If no packets are shown the sender has not sent any weather packets the latest 10 day(s).
| Time | Temp. | Humidity | Pressure | Rain* | Wind** | Luminosity | Snow |
|---|---|---|---|---|---|---|---|
| 1777403456 | 20° C | 79% | 1012.8 hPa | 0 mm | - | 754 W/m² | - |
| 1777403150 | 20° C | 80% | 1012.6 hPa | 0 mm | - | 248 W/m² | - |
| 1777402846 | 18.33° C | 84% | 1012.5 hPa | 0 mm | - | 762 W/m² | - |
| 1777402543 | 17.78° C | 84% | 1012.8 hPa | 0 mm | - | 757 W/m² | - |
| 1777402241 | 16.67° C | 87% | 1012.7 hPa | 0 mm | - | 521 W/m² | - |
| 1777401935 | 16.11° C | 89% | 1012.9 hPa | 0 mm | - | 293 W/m² | - |
| 1777401634 | 16.67° C | 89% | 1013.3 hPa | 0 mm | - | 106 W/m² | - |
| 1777401332 | 16.67° C | 90% | 1013 hPa | 0 mm | - | 112 W/m² | - |
| 1777401027 | 16.11° C | 90% | 1013.1 hPa | 0 mm | - | 177 W/m² | - |
| 1777400723 | 16.11° C | 90% | 1012.9 hPa | 0 mm | - | 102 W/m² | - |
| 1777400420 | 16.11° C | 90% | 1012.8 hPa | 0 mm | - | 105 W/m² | - |
| 1777400114 | 16.11° C | 89% | 1012.8 hPa | 0 mm | - | 168 W/m² | - |
| 1777399812 | 16.11° C | 90% | 1013 hPa | 0 mm | - | 167 W/m² | - |
| 1777399509 | 16.11° C | 91% | 1012.9 hPa | 0 mm | - | 146 W/m² | - |
| 1777399206 | 15.56° C | 91% | 1012.9 hPa | 0 mm | - | 142 W/m² | - |
| 1777398903 | 16.11° C | 91% | 1012.9 hPa | 0 mm | - | 193 W/m² | - |
| 1777398600 | 16.11° C | 90% | 1012.7 hPa | 0 mm | - | 171 W/m² | - |
| 1777398296 | 15.56° C | 90% | 1012.8 hPa | 0 mm | - | 209 W/m² | - |
| 1777397994 | 15° C | 92% | 1012.9 hPa | 0 mm | - | 278 W/m² | - |
| 1777397690 | 15° C | 92% | 1012.8 hPa | 0 mm | - | 162 W/m² | - |
| 1777397386 | 15° C | 92% | 1013 hPa | 0 mm | - | 186 W/m² | - |
| 1777397082 | 15° C | 92% | 1013 hPa | 0 mm | - | 132 W/m² | - |
| 1777396779 | 15° C | 93% | 1012.9 hPa | 0 mm | - | 181 W/m² | - |
| 1777396476 | 15° C | 91% | 1012.9 hPa | 0 mm | - | 155 W/m² | - |
| 1777396173 | 15° C | 92% | 1013.1 hPa | 0 mm | - | 161 W/m² | - |
* Rain latest hour (hover to see other rain measurements)
** Current wind speed in m/s (hover to see current wind gust speed)